Time;durP1;ratioP1;P1;durP2;ratioP2;P2;SDS_P1;SDS_P2;PMS_P1;PMS_P2;Temp;Humidity;BMP_temperature;BMP_pressure;BME280_temperature;BME280_humidity;BME280_pressure;Samples;Min_cycle;Max_cycle;Signal;HPM_P1;HPM_P2
2022/08/03 00:00:51;;;;;;;8.30;4.78;;;;;;;18.63;100.00;97389.47;5017735;28;20049;-79
2022/08/03 00:03:17;;;;;;;4.72;3.53;;;;;;;18.57;100.00;97383.78;5035007;28;20457;-79
2022/08/03 00:05:42;;;;;;;7.18;3.20;;;;;;;18.52;100.00;97378.81;5028259;28;20400;-78
2022/08/03 00:08:08;;;;;;;5.13;2.97;;;;;;;18.55;100.00;97388.53;5018849;28;20085;-80
2022/08/03 00:10:33;;;;;;;4.72;3.40;;;;;;;18.50;100.00;97388.94;5028297;28;20407;-81
2022/08/03 00:12:59;;;;;;;4.68;3.33;;;;;;;18.53;100.00;97393.22;5035115;28;20494;-80
2022/08/03 00:15:24;;;;;;;8.05;2.95;;;;;;;18.55;100.00;97388.53;5043969;28;20169;-80
2022/08/03 00:17:50;;;;;;;3.47;2.97;;;;;;;18.49;100.00;97391.78;5017787;28;20512;-80
2022/08/03 00:20:15;;;;;;;4.07;3.00;;;;;;;18.40;100.00;97385.38;5019952;28;20442;-80
2022/08/03 00:22:41;;;;;;;3.97;3.08;;;;;;;18.33;100.00;97392.41;5036103;28;20068;-81
2022/08/03 00:25:07;;;;;;;3.88;2.97;;;;;;;18.31;100.00;97378.13;5039226;28;20036;-80
2022/08/03 00:27:33;;;;;;;3.70;3.00;;;;;;;18.46;100.00;97387.50;5018128;28;20032;-80
2022/08/03 00:29:58;;;;;;;4.05;2.90;;;;;;;18.38;100.00;97392.81;5018310;28;20032;-79
2022/08/03 00:32:24;;;;;;;5.13;2.78;;;;;;;18.25;100.00;97384.13;5036386;28;20051;-79
2022/08/03 00:34:49;;;;;;;3.28;2.50;;;;;;;18.31;100.00;97388.97;5045209;28;20040;-79
2022/08/03 00:37:15;;;;;;;5.00;2.92;;;;;;;18.25;100.00;97390.41;5013509;28;20026;-80
2022/08/03 00:39:42;;;;;;;3.28;2.95;;;;;;;18.10;100.00;97370.22;5038712;28;20484;-80
2022/08/03 00:42:07;;;;;;;4.25;3.08;;;;;;;18.07;100.00;97369.66;5033615;28;20029;-80
2022/08/03 00:44:39;;;;;;;4.65;3.53;;;;;;;18.13;100.00;97390.72;5046897;28;20503;-80
2022/08/03 00:47:05;;;;;;;6.70;3.40;;;;;;;18.16;100.00;97390.44;5027929;28;20030;-79
2022/08/03 00:49:31;;;;;;;7.25;3.58;;;;;;;18.12;100.00;97381.75;5031173;28;20484;-79
2022/08/03 00:51:57;;;;;;;4.32;3.08;;;;;;;18.04;100.00;97369.94;5043913;27;20035;-79
2022/08/03 00:54:23;;;;;;;8.63;3.47;;;;;;;18.01;100.00;97379.22;5031520;28;20106;-79
2022/08/03 00:56:49;;;;;;;6.63;3.70;;;;;;;17.91;100.00;97370.25;5045443;28;20029;-80
2022/08/03 00:59:15;;;;;;;8.85;3.50;;;;;;;17.95;100.00;97376.22;5021132;28;20029;-80
2022/08/03 01:01:41;;;;;;;5.00;3.58;;;;;;;17.96;100.00;97388.78;5047770;28;20072;-80
2022/08/03 01:04:06;;;;;;;7.40;4.03;;;;;;;17.93;100.00;97389.91;5036450;28;20116;-80
2022/08/03 01:06:38;;;;;;;6.38;3.83;;;;;;;17.93;100.00;97389.91;5044612;28;20021;-80
2022/08/03 01:09:16;;;;;;;13.77;4.18;;;;;;;17.84;100.00;97391.59;5017472;28;20120;-79
2022/08/03 01:11:54;;;;;;;9.57;3.95;;;;;;;17.76;100.00;97396.91;5042327;28;20066;-79
2022/08/03 01:14:28;;;;;;;4.72;4.10;;;;;;;17.68;100.00;97399.47;5026377;28;20030;-79
2022/08/03 01:17:01;;;;;;;4.70;3.47;;;;;;;17.48;100.00;97394.13;5037593;28;20520;-79
2022/08/03 01:19:31;;;;;;;;;;;;;;;17.35;100.00;97400.69;5045513;28;20433;-79
2022/08/03 01:22:15;;;;;;;5.28;3.60;;;;;;;17.23;100.00;97398.25;5038923;28;19913;-79
2022/08/03 01:25:09;;;;;;;4.82;3.38;;;;;;;17.12;100.00;97391.13;5029304;28;20033;-80
2022/08/03 01:28:01;;;;;;;7.90;3.25;;;;;;;17.20;100.00;97393.13;5038585;28;20090;-79
2022/08/03 01:30:29;;;;;;;6.32;3.55;;;;;;;17.15;100.00;97388.13;5040608;28;20029;-80
2022/08/03 01:33:00;;;;;;;5.32;3.67;;;;;;;17.09;100.00;97387.84;5038354;28;20033;-80
2022/08/03 01:35:41;;;;;;;7.05;4.18;;;;;;;17.04;100.00;97373.91;5035942;28;20036;-79
2022/08/03 01:38:13;;;;;;;6.85;3.92;;;;;;;17.09;100.00;97387.84;5024434;28;20025;-79
2022/08/03 01:40:39;;;;;;;7.38;4.07;;;;;;;17.08;100.00;97388.81;5041623;28;20034;-79
2022/08/03 01:43:06;;;;;;;10.57;4.55;;;;;;;17.10;100.00;97378.75;5016764;28;20041;-79
2022/08/03 01:45:32;;;;;;;13.10;4.35;;;;;;;17.08;100.00;97378.88;5028867;28;20450;-79
2022/08/03 01:47:59;;;;;;;6.70;4.15;;;;;;;17.07;100.00;97374.44;5028467;28;20037;-79
2022/08/03 01:50:27;;;;;;;10.10;3.90;;;;;;;17.10;100.00;97370.63;5043116;28;20029;-79
2022/08/03 01:52:53;;;;;;;9.82;4.25;;;;;;;17.03;100.00;97378.44;5042765;28;20483;-79
2022/08/03 01:55:20;;;;;;;5.55;3.95;;;;;;;17.00;100.00;97380.56;5013259;28;20021;-79
2022/08/03 01:57:47;;;;;;;9.05;3.75;;;;;;;17.01;100.00;97377.72;5040667;28;20408;-78
2022/08/03 02:00:13;;;;;;;5.30;3.67;;;;;;;17.00;100.00;97384.13;5027809;28;20081;-79
2022/08/03 02:02:39;;;;;;;7.80;3.67;;;;;;;16.96;100.00;97379.97;5020278;28;20090;-79
2022/08/03 02:05:08;;;;;;;5.03;3.00;;;;;;;17.00;100.00;97377.84;5045064;28;20028;-79
2022/08/03 02:07:34;;;;;;;4.45;3.33;;;;;;;16.97;100.00;97380.84;5024405;28;20033;-79
2022/08/03 02:10:00;;;;;;;4.45;3.33;;;;;;;16.85;100.00;97363.03;5036823;28;20097;-79
2022/08/03 02:12:28;;;;;;;4.78;3.30;;;;;;;16.85;100.00;97390.91;5046730;28;20401;-80
2022/08/03 02:14:55;;;;;;;6.05;3.63;;;;;;;16.81;100.00;97378.66;5043934;28;20031;-79
2022/08/03 02:17:22;;;;;;;3.97;3.30;;;;;;;16.79;100.00;97370.72;5035153;28;20032;-80
2022/08/03 02:19:49;;;;;;;4.28;3.22;;;;;;;16.76;100.00;97365.56;5020219;28;20021;-79
2022/08/03 02:22:15;;;;;;;4.28;3.10;;;;;;;16.75;100.00;97361.16;5020235;28;20053;-79
2022/08/03 02:24:41;;;;;;;9.18;3.20;;;;;;;16.72;100.00;97365.97;5016066;28;20503;-80
2022/08/03 02:27:20;;;;;;;4.32;3.22;;;;;;;16.74;100.00;97366.69;5036509;28;20033;-79
2022/08/03 02:29:49;;;;;;;5.05;2.97;;;;;;;16.78;100.00;97371.69;5028889;28;20081;-79
2022/08/03 02:32:17;;;;;;;5.28;3.28;;;;;;;16.74;100.00;97377.50;5027581;28;20391;-79
2022/08/03 02:34:45;;;;;;;4.07;3.20;;;;;;;16.69;100.00;97367.13;5024257;28;20033;-79
2022/08/03 02:37:12;;;;;;;7.40;3.20;;;;;;;16.70;100.00;97371.50;5020005;28;20037;-79
2022/08/03 02:39:41;;;;;;;5.28;3.10;;;;;;;16.75;100.00;97373.81;5036595;28;20178;-79
2022/08/03 02:42:08;;;;;;;15.02;3.58;;;;;;;16.79;100.00;97368.00;5042892;28;20060;-79
2022/08/03 02:44:34;;;;;;;6.13;3.17;;;;;;;16.86;100.00;97365.59;5021535;28;20025;-80
2022/08/03 02:47:03;;;;;;;3.83;3.17;;;;;;;16.93;100.00;97368.59;5023642;28;20030;-79
2022/08/03 02:49:28;;;;;;;5.28;3.88;;;;;;;16.97;100.00;97370.91;5015551;28;20029;-79
2022/08/03 02:51:55;;;;;;;9.10;3.58;;;;;;;16.91;100.00;97373.28;5032530;28;20033;-79
2022/08/03 02:54:22;;;;;;;8.32;3.35;;;;;;;16.84;100.00;97361.31;5027455;28;20120;-79
2022/08/03 02:56:48;;;;;;;6.95;3.80;;;;;;;16.86;100.00;97367.47;5017077;28;20155;-79
2022/08/03 02:59:15;;;;;;;9.00;4.40;;;;;;;16.79;100.00;97378.81;5040076;28;20049;-79
2022/08/03 03:01:41;;;;;;;4.57;3.78;;;;;;;16.79;100.00;97386.91;5022358;28;20040;-78
2022/08/03 03:04:07;;;;;;;10.48;3.60;;;;;;;16.83;100.00;97384.78;5025598;28;20041;-79
2022/08/03 03:06:32;;;;;;;7.80;3.80;;;;;;;16.76;100.00;97381.75;5028070;28;20018;-80
2022/08/03 03:08:58;;;;;;;6.03;3.65;;;;;;;16.71;100.00;97383.16;5042222;28;20034;-79
2022/08/03 03:11:25;;;;;;;6.35;3.60;;;;;;;16.71;100.00;97385.88;5022544;28;20031;-79
2022/08/03 03:13:52;;;;;;;12.98;4.75;;;;;;;16.67;100.00;97401.50;5042264;28;20466;-80
2022/08/03 03:16:18;;;;;;;6.28;4.35;;;;;;;16.56;100.00;97393.50;5016094;28;20044;-79
2022/08/03 03:18:45;;;;;;;8.82;4.53;;;;;;;16.35;100.00;97398.06;5038352;28;20048;-79
2022/08/03 03:21:12;;;;;;;8.73;4.97;;;;;;;16.26;100.00;97412.34;5041806;28;20550;-79
2022/08/03 03:23:39;;;;;;;10.65;4.80;;;;;;;16.23;100.00;97410.78;5024250;28;20449;-80
2022/08/03 03:26:06;;;;;;;11.52;4.20;;;;;;;16.25;100.00;97406.09;5026897;28;20029;-80
2022/08/03 03:28:32;;;;;;;6.63;3.80;;;;;;;16.28;100.00;97413.06;5033545;28;20087;-80
2022/08/03 03:30:58;;;;;;;9.15;4.00;;;;;;;16.32;100.00;97417.22;5028242;28;20599;-79
2022/08/03 03:33:24;;;;;;;9.00;4.75;;;;;;;16.27;100.00;97406.81;5018003;28;20036;-79
2022/08/03 03:35:50;;;;;;;7.55;4.10;;;;;;;16.35;100.00;97414.25;5016295;28;20025;-78
2022/08/03 03:38:16;;;;;;;5.60;3.83;;;;;;;16.36;100.00;97417.81;5019944;28;20104;-78
2022/08/03 03:40:42;;;;;;;7.78;3.80;;;;;;;16.37;100.00;97412.25;5022696;28;20029;-79
2022/08/03 03:43:10;;;;;;;4.75;3.80;;;;;;;16.41;100.00;97421.81;5036821;28;20025;-78
2022/08/03 03:45:35;;;;;;;4.70;3.90;;;;;;;16.48;100.00;97414.91;5014630;28;20032;-79
2022/08/03 03:48:03;;;;;;;11.25;4.28;;;;;;;16.55;100.00;97424.19;5014367;28;20400;-79
2022/08/03 03:50:31;;;;;;;7.82;3.97;;;;;;;16.59;100.00;97431.03;5043503;28;20027;-79
2022/08/03 03:52:57;;;;;;;7.05;3.72;;;;;;;16.55;100.00;97426.88;5030075;28;20419;-79
2022/08/03 03:55:23;;;;;;;6.60;4.25;;;;;;;16.56;100.00;97417.81;5021462;28;20029;-79
2022/08/03 03:57:49;;;;;;;6.30;3.80;;;;;;;16.70;100.00;97420.13;5013471;28;20405;-79
2022/08/03 04:00:16;;;;;;;9.38;4.20;;;;;;;16.76;100.00;97426.84;5028420;28;20026;-80
2022/08/03 04:03:03;;;;;;;7.40;4.20;;;;;;;16.66;100.00;97402.50;5038103;28;20511;-79
2022/08/03 04:11:06;;;;;;;6.05;3.67;;;;;;;17.16;100.00;97426.84;5038704;28;20534;-80
2022/08/03 04:13:54;;;;;;;12.73;3.95;;;;;;;17.29;100.00;97422.88;5021707;28;20091;-79
2022/08/03 04:16:21;;;;;;;6.07;3.50;;;;;;;17.38;100.00;97432.00;5030582;28;20021;-80
2022/08/03 04:18:51;;;;;;;9.25;3.70;;;;;;;17.52;100.00;97439.72;5008529;28;20033;-80
2022/08/03 04:21:22;;;;;;;5.25;3.55;;;;;;;17.63;100.00;97430.63;5022601;28;20596;-80
2022/08/03 04:23:50;;;;;;;5.47;4.32;;;;;;;17.83;100.00;97435.06;5022049;28;20944;-81
2022/08/03 04:26:20;;;;;;;16.80;4.93;;;;;;;17.83;100.00;97435.94;5014875;28;20066;-80
2022/08/03 04:28:46;;;;;;;14.27;5.25;;;;;;;18.10;100.00;97434.31;5034503;28;20028;-80
2022/08/03 04:31:12;;;;;;;9.75;4.75;;;;;;;18.38;100.00;97428.00;5023702;28;20092;-80
2022/08/03 04:33:38;;;;;;;7.88;4.38;;;;;;;19.10;100.00;97440.91;5038265;28;20029;-79
2022/08/03 04:36:07;;;;;;;10.70;4.47;;;;;;;19.51;99.42;97437.69;5016445;28;20066;-79
2022/08/03 04:38:43;;;;;;;5.47;3.97;;;;;;;18.93;100.00;97432.56;5031786;28;20025;-78
2022/08/03 04:41:09;;;;;;;11.60;4.60;;;;;;;18.62;100.00;97451.94;5027576;28;20120;-80
2022/08/03 04:43:35;;;;;;;10.27;3.85;;;;;;;18.62;100.00;97449.22;5022321;28;20170;-79
2022/08/03 04:46:01;;;;;;;6.45;4.60;;;;;;;18.29;100.00;97445.13;5042441;28;20029;-80
2022/08/03 04:48:27;;;;;;;7.65;5.03;;;;;;;18.26;100.00;97446.28;5037933;28;20123;-80
2022/08/03 04:50:53;;;;;;;7.57;4.22;;;;;;;18.47;100.00;97453.38;5013414;28;20109;-80
2022/08/03 04:53:19;;;;;;;17.60;5.20;;;;;;;18.52;100.00;97451.13;5021422;28;20036;-80
2022/08/03 04:55:44;;;;;;;14.52;4.63;;;;;;;18.41;100.00;97450.25;5039945;28;20080;-80
2022/08/03 04:58:11;;;;;;;8.13;3.88;;;;;;;18.44;100.00;97451.81;5032433;28;20025;-83
2022/08/03 05:00:37;;;;;;;5.60;4.10;;;;;;;18.35;100.00;97455.38;5020920;28;20032;-83
2022/08/03 05:03:02;;;;;;;8.85;3.97;;;;;;;18.59;100.00;97458.50;5015642;28;20053;-80
2022/08/03 05:05:28;;;;;;;5.05;3.97;;;;;;;18.81;100.00;97460.00;5037322;28;20030;-80
2022/08/03 05:07:55;;;;;;;7.47;3.88;;;;;;;19.08;100.00;97459.16;5040759;28;20135;-79
2022/08/03 05:10:20;;;;;;;10.13;3.50;;;;;;;19.36;100.00;97467.16;5029844;28;20029;-79
2022/08/03 05:12:47;;;;;;;7.30;3.60;;;;;;;19.54;98.15;97472.66;5023008;28;20565;-80
2022/08/03 05:15:20;;;;;;;11.50;3.83;;;;;;;19.70;96.62;97475.56;5022370;28;20049;-80
2022/08/03 05:17:46;;;;;;;16.63;4.63;;;;;;;19.70;97.73;97474.69;5015374;28;20392;-79
2022/08/03 05:20:11;;;;;;;12.02;5.07;;;;;;;19.73;97.98;97472.53;5013083;28;20037;-79
2022/08/03 05:22:37;;;;;;;8.45;4.55;;;;;;;19.84;96.90;97482.34;5023482;28;20031;-79
2022/08/03 05:25:06;;;;;;;9.20;4.82;;;;;;;19.91;96.91;97476.13;5032458;28;20133;-80
2022/08/03 05:27:31;;;;;;;10.65;4.43;;;;;;;20.16;94.05;97479.91;5044409;28;20078;-80
2022/08/03 05:29:57;;;;;;;16.50;7.82;;;;;;;20.60;90.96;97485.41;5038201;28;20385;-80
2022/08/03 05:32:23;;;;;;;12.82;7.15;;;;;;;20.87;89.58;97482.53;5029647;28;20111;-79
2022/08/03 05:34:48;;;;;;;14.15;5.28;;;;;;;21.22;86.32;97481.59;5029180;28;20105;-80
2022/08/03 05:37:14;;;;;;;26.33;5.68;;;;;;;21.64;84.37;97474.25;5031465;28;20030;-78
2022/08/03 05:39:40;;;;;;;6.53;3.78;;;;;;;23.04;76.99;97463.09;5020834;28;20028;-80
2022/08/03 05:42:05;;;;;;;10.88;4.45;;;;;;;25.13;67.01;97465.50;5023139;28;20029;-78
2022/08/03 05:44:31;;;;;;;7.05;3.55;;;;;;;26.73;60.15;97462.63;5039825;28;20025;-79
2022/08/03 05:46:57;;;;;;;14.50;3.95;;;;;;;27.98;56.11;97465.13;5031635;28;20030;-80
2022/08/03 05:49:22;;;;;;;8.88;3.13;;;;;;;28.49;53.00;97459.13;5039801;28;20033;-80
2022/08/03 05:51:48;;;;;;;6.38;3.13;;;;;;;28.58;52.22;97468.88;5034408;28;20032;-79
2022/08/03 05:54:14;;;;;;;4.78;3.28;;;;;;;29.84;49.42;97457.56;5031625;28;20462;-80
2022/08/03 05:56:42;;;;;;;6.75;2.90;;;;;;;31.29;45.25;97456.59;5020557;28;20085;-81
2022/08/03 05:59:08;;;;;;;8.63;2.88;;;;;;;31.93;43.03;97456.16;5018959;28;20043;-79
2022/08/03 06:01:33;;;;;;;5.60;2.60;;;;;;;32.37;41.90;97450.22;5033416;28;20041;-79
2022/08/03 06:03:59;;;;;;;5.25;2.40;;;;;;;33.45;39.47;97448.06;5039029;28;20045;-79
2022/08/03 06:06:24;;;;;;;3.92;2.28;;;;;;;33.69;38.60;97449.75;5046868;28;20133;-80
2022/08/03 06:08:50;;;;;;;9.27;2.92;;;;;;;35.23;36.51;97445.84;5035216;28;20052;-82
2022/08/03 06:11:16;;;;;;;7.28;2.42;;;;;;;35.95;34.88;97433.84;5011940;28;20037;-81
2022/08/03 06:13:42;;;;;;;5.63;2.92;;;;;;;35.62;34.82;97437.59;5029154;28;20484;-82
2022/08/03 06:16:08;;;;;;;5.57;2.63;;;;;;;35.14;35.10;97438.19;5023650;28;20025;-81
2022/08/03 06:18:34;;;;;;;3.17;2.20;;;;;;;34.65;35.06;97449.00;5046977;28;20036;-81
2022/08/03 06:21:00;;;;;;;5.32;2.47;;;;;;;33.73;36.44;97445.41;5021017;28;20082;-82
2022/08/03 06:23:25;;;;;;;4.00;2.60;;;;;;;31.63;40.25;97461.59;5018739;28;20045;-81
2022/08/03 06:25:51;;;;;;;11.10;2.45;;;;;;;33.59;37.55;97446.78;5030051;28;20037;-80
2022/08/03 06:28:17;;;;;;;9.70;2.20;;;;;;;33.58;37.28;97450.59;5042468;28;20105;-80
2022/08/03 06:30:43;;;;;;;2.50;2.20;;;;;;;34.13;36.10;97442.69;5041970;28;20035;-79
2022/08/03 06:33:08;;;;;;;5.30;2.63;;;;;;;33.00;37.56;97438.63;5011830;28;20032;-80
2022/08/03 06:35:34;;;;;;;3.72;2.70;;;;;;;32.63;38.36;97447.13;5035981;28;20036;-80
2022/08/03 06:38:00;;;;;;;9.60;2.67;;;;;;;31.40;40.49;97453.94;5032368;28;20029;-80
2022/08/03 06:40:32;;;;;;;5.55;3.15;;;;;;;31.47;40.65;97456.66;5038773;28;20043;-81
2022/08/03 06:42:59;;;;;;;7.47;3.53;;;;;;;31.31;41.08;97465.53;5025974;28;20126;-81
2022/08/03 06:45:25;;;;;;;5.72;4.15;;;;;;;30.93;41.73;97469.25;5014458;28;20100;-80
2022/08/03 06:48:03;;;;;;;20.17;5.20;;;;;;;30.69;42.61;97471.97;5024412;28;20073;-82
2022/08/03 06:50:29;;;;;;;18.85;4.75;;;;;;;30.88;42.20;97460.78;5031028;28;20057;-81
2022/08/03 06:52:55;;;;;;;11.77;3.88;;;;;;;30.57;42.57;97472.72;5024078;28;20482;-80
2022/08/03 06:55:20;;;;;;;4.70;2.63;;;;;;;32.34;39.17;97439.63;5016474;28;20060;-81
2022/08/03 06:57:46;;;;;;;10.30;3.33;;;;;;;34.72;35.93;97443.28;5022006;28;20039;-82
2022/08/03 07:00:13;;;;;;;3.20;2.40;;;;;;;34.43;35.61;97442.44;5039473;28;20135;-81
2022/08/03 07:02:39;;;;;;;5.43;2.65;;;;;;;34.49;35.44;97435.03;5037340;28;20098;-80
2022/08/03 07:05:05;;;;;;;6.40;3.33;;;;;;;34.90;34.52;97433.84;5030245;28;20484;-80
2022/08/03 07:07:31;;;;;;;9.20;3.13;;;;;;;34.55;35.13;97434.03;5030801;28;20490;-80
2022/08/03 07:09:56;;;;;;;10.88;2.83;;;;;;;34.61;34.84;97431.13;5021330;28;20128;-80
2022/08/03 07:12:22;;;;;;;3.20;2.55;;;;;;;34.90;34.23;97426.38;5035897;28;20026;-80
2022/08/03 07:14:47;;;;;;;5.38;3.40;;;;;;;35.81;33.17;97441.72;5013212;28;20053;-81
2022/08/03 07:17:13;;;;;;;5.28;3.10;;;;;;;36.58;32.28;97439.66;5027920;28;20381;-81
2022/08/03 07:19:39;;;;;;;4.40;2.70;;;;;;;35.32;33.37;97440.69;5044410;28;20052;-81
2022/08/03 07:22:05;;;;;;;5.03;2.53;;;;;;;35.99;33.20;97444.22;5025387;28;20033;-81
2022/08/03 07:24:30;;;;;;;4.90;2.97;;;;;;;34.58;35.02;97444.69;5033733;28;20089;-82
2022/08/03 07:26:56;;;;;;;6.05;2.58;;;;;;;36.24;32.46;97436.19;5038593;28;20442;-81
2022/08/03 07:29:22;;;;;;;5.40;2.80;;;;;;;35.63;32.73;97440.09;5026682;28;20033;-82
2022/08/03 07:31:47;;;;;;;8.88;2.70;;;;;;;36.27;32.37;97440.41;5038059;28;20029;-82
2022/08/03 07:34:13;;;;;;;5.75;2.38;;;;;;;35.84;32.63;97442.06;5040930;28;20040;-82
2022/08/03 07:36:38;;;;;;;7.60;3.10;;;;;;;36.62;32.22;97443.59;5024703;28;20039;-82
2022/08/03 07:39:04;;;;;;;6.60;2.22;;;;;;;35.05;33.51;97436.88;5022283;28;20040;-80
2022/08/03 07:41:30;;;;;;;4.90;2.35;;;;;;;34.07;34.83;97432.53;5042298;28;20033;-82
2022/08/03 07:43:56;;;;;;;11.18;2.38;;;;;;;36.10;32.47;97431.28;5016128;28;20043;-81
2022/08/03 07:46:22;;;;;;;3.28;2.55;;;;;;;35.08;33.80;97426.09;5030501;28;20502;-81
2022/08/03 07:48:47;;;;;;;4.18;2.45;;;;;;;36.02;32.33;97431.72;5044891;28;20112;-81
2022/08/03 07:51:13;;;;;;;4.93;2.63;;;;;;;36.29;32.09;97438.19;5042832;28;20524;-81
2022/08/03 07:53:39;;;;;;;25.83;4.50;;;;;;;36.47;32.00;97435.06;5017142;28;20037;-80
2022/08/03 07:56:04;;;;;;;4.20;2.55;;;;;;;36.65;32.36;97437.50;5030151;28;20025;-81
2022/08/03 07:58:30;;;;;;;7.47;2.40;;;;;;;36.90;31.97;97434.97;5031582;28;20105;-82
2022/08/03 08:00:55;;;;;;;4.07;2.40;;;;;;;36.49;32.22;97432.00;5037919;28;20476;-82
2022/08/03 08:03:21;;;;;;;8.10;2.60;;;;;;;36.15;32.63;97426.59;5030510;28;20412;-82
2022/08/03 08:05:47;;;;;;;4.03;2.28;;;;;;;37.27;30.60;97436.97;5027517;28;20112;-82
2022/08/03 08:08:13;;;;;;;6.78;2.90;;;;;;;39.38;28.74;97422.97;5021620;28;20022;-81
2022/08/03 08:10:38;;;;;;;3.92;2.35;;;;;;;40.50;27.13;97431.91;5038343;28;20032;-82
2022/08/03 08:13:04;;;;;;;5.72;2.42;;;;;;;38.87;28.38;97438.91;5038429;28;20025;-82
2022/08/03 08:15:30;;;;;;;2.45;2.20;;;;;;;39.75;27.19;97428.25;5043649;28;20529;-81
2022/08/03 08:17:58;;;;;;;10.00;2.58;;;;;;;39.08;27.73;97438.91;5041007;28;20032;-82
2022/08/03 08:20:26;;;;;;;2.65;2.42;;;;;;;38.32;28.46;97438.72;5018980;28;20453;-82
2022/08/03 08:22:52;;;;;;;5.88;2.22;;;;;;;38.16;29.15;97435.03;5041324;28;20041;-81
2022/08/03 08:25:18;;;;;;;8.48;2.70;;;;;;;39.55;27.64;97437.53;5019955;28;20025;-83
2022/08/03 08:27:49;;;;;;;11.65;3.03;;;;;;;37.63;30.03;97436.13;5029476;28;20077;-83
2022/08/03 08:30:20;;;;;;;5.32;2.70;;;;;;;37.10;30.11;97439.88;5018518;28;20017;-82
2022/08/03 08:32:46;;;;;;;7.47;2.97;;;;;;;36.58;31.19;97436.88;5030078;28;20082;-81
2022/08/03 08:35:12;;;;;;;6.13;2.72;;;;;;;35.94;31.68;97437.72;5044117;28;20077;-82
2022/08/03 08:37:39;;;;;;;5.82;2.55;;;;;;;35.90;31.80;97446.59;5046333;28;20472;-82
2022/08/03 08:40:06;;;;;;;5.85;2.50;;;;;;;37.89;29.46;97437.13;5017188;28;20040;-81
2022/08/03 08:42:31;;;;;;;6.53;2.47;;;;;;;38.33;28.47;97429.22;5017965;28;20524;-81
2022/08/03 08:44:59;;;;;;;3.55;2.50;;;;;;;39.24;27.77;97443.44;5018094;28;20033;-82
2022/08/03 08:47:25;;;;;;;6.03;2.30;;;;;;;41.06;25.49;97443.66;5021210;28;20057;-82
2022/08/03 08:49:57;;;;;;;5.38;2.20;;;;;;;40.92;24.84;97440.63;5017933;28;20025;-82
2022/08/03 08:52:29;;;;;;;;;;;;;;;40.71;24.80;97447.50;5028291;28;20021;-81
2022/08/03 08:54:57;;;;;;;6.85;2.22;;;;;;;40.21;25.63;97439.34;5035610;28;19920;-81
2022/08/03 08:57:32;;;;;;;6.05;2.50;;;;;;;40.45;25.22;97437.53;5051531;28;20025;-82
2022/08/03 08:59:58;;;;;;;3.60;2.60;;;;;;;41.77;24.21;97435.47;5031922;28;20026;-81
2022/08/03 09:02:24;;;;;;;4.60;2.03;;;;;;;40.86;24.83;97433.38;5033418;28;20056;-81
2022/08/03 09:04:50;;;;;;;2.33;2.05;;;;;;;39.52;25.98;97426.03;5032450;28;20053;-81
2022/08/03 09:07:16;;;;;;;4.40;2.03;;;;;;;39.88;25.23;97429.63;5037590;28;20033;-81
2022/08/03 09:09:42;;;;;;;3.88;2.25;;;;;;;39.61;25.69;97423.50;5022335;28;20037;-81
2022/08/03 09:12:08;;;;;;;3.92;2.38;;;;;;;39.01;26.41;97423.22;5036842;28;20037;-81
2022/08/03 09:14:33;;;;;;;4.55;3.20;;;;;;;39.53;25.86;97422.94;5023724;28;20483;-81
2022/08/03 09:17:03;;;;;;;5.72;2.03;;;;;;;40.22;25.10;97424.19;5037397;28;20141;-82
2022/08/03 09:19:30;;;;;;;4.35;1.95;;;;;;;40.91;24.28;97424.94;5023015;28;20022;-81
2022/08/03 09:22:16;;;;;;;2.45;2.00;;;;;;;41.07;24.46;97426.50;5041098;28;20074;-80
2022/08/03 09:25:00;;;;;;;6.70;2.53;;;;;;;41.23;23.82;97417.94;5032421;28;20100;-80
2022/08/03 09:27:25;;;;;;;4.35;2.10;;;;;;;40.70;24.72;97422.56;5021597;28;20036;-80
2022/08/03 09:29:52;;;;;;;6.90;2.30;;;;;;;42.39;22.97;97411.09;5028160;28;20034;-81
2022/08/03 09:32:20;;;;;;;4.00;2.00;;;;;;;43.22;22.08;97416.91;5028752;28;20536;-81
2022/08/03 09:34:48;;;;;;;1.88;1.77;;;;;;;44.02;21.44;97411.78;5040201;28;20164;-81
2022/08/03 09:37:15;;;;;;;2.97;2.15;;;;;;;42.02;23.33;97415.50;5030813;28;20029;-81
2022/08/03 09:39:41;;;;;;;2.97;2.03;;;;;;;41.31;23.92;97418.16;5050460;28;20029;-81
2022/08/03 09:42:09;;;;;;;17.80;4.38;;;;;;;42.53;22.87;97401.59;5026613;28;20416;-81
2022/08/03 09:44:36;;;;;;;7.10;2.92;;;;;;;41.81;23.47;97411.22;5032139;28;20032;-81
2022/08/03 09:47:02;;;;;;;3.97;2.20;;;;;;;42.25;22.58;97410.16;5029331;28;20040;-81
2022/08/03 09:49:27;;;;;;;3.75;2.20;;;;;;;41.64;23.75;97410.84;5037031;28;20022;-82
2022/08/03 09:51:53;;;;;;;3.10;2.22;;;;;;;39.45;25.55;97408.69;5041361;28;20040;-82
2022/08/03 09:54:29;;;;;;;2.20;2.00;;;;;;;39.74;25.50;97406.13;5029600;28;20033;-81
2022/08/03 09:56:56;;;;;;;4.85;2.03;;;;;;;39.90;25.27;97407.75;5033099;28;20058;-81
2022/08/03 09:59:28;;;;;;;4.40;1.98;;;;;;;40.70;24.45;97392.53;5048652;28;20458;-81
2022/08/03 10:01:56;;;;;;;2.30;1.90;;;;;;;41.57;23.84;97396.28;5024950;28;20033;-82
2022/08/03 10:04:22;;;;;;;3.88;1.80;;;;;;;41.99;23.32;97390.78;5032036;28;20072;-82
2022/08/03 10:07:10;;;;;;;2.80;2.50;;;;;;;42.69;22.94;97388.16;5036975;28;20026;-82
2022/08/03 10:09:36;;;;;;;2.53;2.33;;;;;;;43.66;22.10;97391.88;5013104;28;20066;-82
2022/08/03 10:12:08;;;;;;;3.80;2.40;;;;;;;43.61;22.38;97382.69;5040424;28;20036;-82
2022/08/03 10:14:36;;;;;;;8.13;2.88;;;;;;;43.53;22.93;97391.88;5049412;28;20124;-82
2022/08/03 10:17:02;;;;;;;16.92;3.33;;;;;;;42.70;23.32;97389.84;5040273;28;20439;-82
2022/08/03 10:19:27;;;;;;;2.78;2.45;;;;;;;39.53;26.03;97380.91;5023749;28;20037;-82
2022/08/03 10:21:55;;;;;;;5.13;2.58;;;;;;;39.33;26.28;97380.13;5031213;28;20430;-82
2022/08/03 10:24:26;;;;;;;2.70;2.10;;;;;;;38.64;27.28;97389.03;5048292;28;20033;-81
2022/08/03 10:27:04;;;;;;;3.00;2.30;;;;;;;40.08;26.30;97377.13;5040018;28;20583;-81
2022/08/03 10:29:36;;;;;;;11.80;2.45;;;;;;;41.64;24.35;97368.66;5040298;28;20029;-81
2022/08/03 10:32:04;;;;;;;4.78;2.85;;;;;;;42.34;23.70;97368.94;5024045;28;20179;-81
2022/08/03 10:34:34;;;;;;;2.55;2.35;;;;;;;43.02;23.37;97364.56;5023786;28;20446;-82
2022/08/03 10:37:03;;;;;;;6.35;2.38;;;;;;;43.88;22.69;97368.63;5023255;28;20098;-82
2022/08/03 10:39:29;;;;;;;6.03;2.30;;;;;;;41.98;24.45;97365.75;5040171;28;20034;-82
2022/08/03 10:41:57;;;;;;;2.72;2.42;;;;;;;41.41;24.71;97358.28;5039115;28;20480;-81
2022/08/03 10:44:25;;;;;;;10.23;2.50;;;;;;;39.74;26.33;97353.72;5024888;28;20033;-81
2022/08/03 10:46:50;;;;;;;6.03;2.60;;;;;;;38.83;27.53;97359.44;5029824;28;20115;-80
2022/08/03 10:49:18;;;;;;;2.33;2.10;;;;;;;37.78;28.99;97358.00;5034065;28;20109;-81
2022/08/03 10:51:44;;;;;;;2.80;2.03;;;;;;;38.52;27.87;97356.88;5011498;28;20033;-81
2022/08/03 10:57:46;;;;;;;5.85;2.45;;;;;;;42.55;23.50;97345.00;5029836;28;20084;-80
2022/08/03 11:00:14;;;;;;;3.95;2.20;;;;;;;41.03;24.89;97344.00;5027415;28;20435;-81
2022/08/03 11:03:05;;;;;;;2.30;1.98;;;;;;;41.88;24.29;97344.22;5020658;28;20064;-81
2022/08/03 11:05:33;;;;;;;5.50;2.55;;;;;;;40.74;25.04;97343.09;5033779;28;20029;-81
2022/08/03 11:08:44;;;;;;;4.30;2.40;;;;;;;40.69;25.41;97343.13;5012627;28;20038;-80
2022/08/03 11:11:17;;;;;;;4.38;2.53;;;;;;;42.11;23.78;97340.56;5012378;28;20060;-81
2022/08/03 11:14:03;;;;;;;4.20;2.20;;;;;;;41.85;24.18;97344.84;5027259;28;20029;-81
2022/08/03 11:16:33;;;;;;;6.03;2.20;;;;;;;40.17;25.46;97334.50;5040856;28;20025;-81
2022/08/03 11:19:01;;;;;;;5.63;2.33;;;;;;;37.65;28.03;97325.00;5013335;28;20051;-81
2022/08/03 11:21:52;;;;;;;13.68;3.78;;;;;;;36.06;30.35;97340.94;5020439;28;20067;-81
2022/08/03 11:24:35;;;;;;;8.93;3.20;;;;;;;35.63;30.74;97339.00;5027806;28;20481;-81
2022/08/03 11:27:13;;;;;;;4.72;2.63;;;;;;;35.65;30.86;97339.63;5035106;28;20482;-81
2022/08/03 11:29:55;;;;;;;4.95;3.20;;;;;;;35.62;31.02;97326.22;5034500;28;20029;-81
2022/08/03 11:32:43;;;;;;;;;;;;;;;35.46;31.29;97329.88;5025904;28;20033;-81
2022/08/03 11:35:16;;;;;;;4.35;2.80;;;;;;;35.27;31.04;97324.63;5047977;27;19920;-79
2022/08/03 11:37:57;;;;;;;4.05;2.97;;;;;;;37.34;29.35;97323.13;5028229;28;20026;-80
2022/08/03 11:40:42;;;;;;;3.97;2.38;;;;;;;39.28;27.23;97321.34;5033936;28;20149;-81
2022/08/03 11:43:29;;;;;;;7.22;3.03;;;;;;;40.82;25.43;97314.41;5010785;28;20503;-81